createdAt,value
2018-01-31T01:52:33.076Z,8
2018-01-31T01:59:03.563Z,7
2018-01-31T02:09:03.629Z,9
2018-01-31T02:19:03.517Z,8
2018-01-31T02:29:03.744Z,10
2018-01-31T02:39:03.601Z,10
2018-01-31T02:49:03.617Z,11
2018-01-31T02:59:03.595Z,11
2018-01-31T03:09:03.527Z,11
2018-01-31T03:19:03.667Z,13
2018-01-31T03:29:03.689Z,11
2018-01-31T03:39:03.699Z,13
2018-01-31T03:49:03.619Z,12
2018-01-31T03:59:03.690Z,11
2018-01-31T04:09:03.708Z,9
2018-01-31T04:19:03.699Z,8
2018-01-31T04:29:03.735Z,8
2018-01-31T04:39:03.722Z,9
2018-01-31T04:49:03.790Z,8
2018-01-31T04:59:03.747Z,8
2018-01-31T05:09:03.660Z,7
2018-01-31T05:19:03.643Z,8
2018-01-31T05:29:03.617Z,7
2018-01-31T05:39:03.675Z,7
2018-01-31T05:49:03.747Z,8
2018-01-31T05:59:03.651Z,9
2018-01-31T06:09:03.739Z,9
2018-01-31T06:19:03.706Z,8
2018-01-31T06:29:03.820Z,9
2018-01-31T06:39:03.801Z,7
2018-01-31T06:49:03.833Z,5
2018-01-31T06:59:03.802Z,7
2018-01-31T07:09:03.948Z,7
2018-01-31T07:19:03.894Z,7
2018-01-31T07:29:03.909Z,6
2018-01-31T07:39:03.974Z,6
2018-01-31T07:49:03.890Z,6
2018-01-31T07:59:04.312Z,5
2018-01-31T08:09:04.092Z,4
2018-01-31T08:19:04.177Z,4
2018-01-31T08:29:03.930Z,4
2018-01-31T08:39:03.867Z,4
2018-01-31T08:49:03.961Z,4
2018-01-31T08:59:03.974Z,5
2018-01-31T09:09:03.964Z,5
2018-01-31T09:19:04.181Z,4
2018-01-31T09:29:03.909Z,4
2018-01-31T09:39:04.020Z,3
2018-01-31T09:49:03.980Z,4
2018-01-31T09:59:03.977Z,4
2018-01-31T10:09:04.120Z,4
2018-01-31T10:19:04.140Z,4
2018-01-31T10:29:04.055Z,5
2018-01-31T10:39:04.092Z,4
2018-01-31T10:49:04.031Z,3
2018-01-31T10:59:04.039Z,4
2018-01-31T11:09:04.303Z,3
2018-01-31T11:19:04.140Z,3
2018-01-31T11:29:04.078Z,3
2018-01-31T11:39:04.184Z,2
2018-01-31T11:49:04.094Z,2
2018-01-31T11:59:04.065Z,2
2018-01-31T12:09:04.158Z,2
2018-01-31T12:19:04.211Z,0
2018-01-31T12:29:04.187Z,0
2018-01-31T12:39:04.197Z,0
2018-01-31T12:49:04.217Z,1
2018-01-31T12:59:04.108Z,0
2018-01-31T13:09:04.244Z,0
2018-01-31T13:19:04.210Z,0
2018-01-31T13:29:04.241Z,1
2018-01-31T13:39:04.186Z,0
2018-01-31T13:49:04.299Z,1
2018-01-31T13:59:04.224Z,1
2018-01-31T14:09:04.152Z,2
2018-01-31T14:19:04.285Z,1
2018-01-31T14:29:04.210Z,2
2018-01-31T14:39:04.319Z,2
2018-01-31T14:49:05.759Z,2
2018-01-31T14:59:04.398Z,2
2018-01-31T15:09:04.265Z,1
2018-01-31T15:19:04.340Z,1
2018-01-31T15:29:04.252Z,1
2018-01-31T15:39:04.253Z,1
2018-01-31T15:49:04.618Z,1
2018-01-31T15:59:04.220Z,1
2018-01-31T16:09:04.471Z,1
2018-01-31T16:19:04.385Z,1
2018-01-31T16:29:04.304Z,1
2018-01-31T16:39:04.356Z,0
2018-01-31T16:49:05.373Z,0
2018-01-31T16:59:04.452Z,0
2018-01-31T17:09:04.379Z,0
2018-01-31T17:19:04.386Z,1
2018-01-31T17:29:04.457Z,1
2018-01-31T17:39:04.350Z,0
2018-01-31T17:59:51.831Z,2
2018-01-31T18:00:32.366Z,2
2018-01-31T18:10:33.448Z,1
2018-01-31T18:20:32.605Z,1
2018-01-31T18:30:32.471Z,2
2018-01-31T18:40:37.149Z,2
2018-01-31T18:50:32.456Z,2
2018-01-31T19:00:32.442Z,2
2018-01-31T19:10:34.405Z,2
2018-01-31T19:20:34.574Z,1
2018-01-31T19:30:33.573Z,2
2018-01-31T19:40:33.606Z,2
2018-01-31T19:50:32.593Z,2
2018-01-31T20:00:37.844Z,2
2018-01-31T20:10:32.839Z,3
2018-01-31T20:20:32.560Z,3
2018-01-31T20:30:32.696Z,5
2018-01-31T20:40:33.689Z,4
2018-01-31T20:50:32.615Z,5
2018-01-31T21:00:32.684Z,5
2018-01-31T21:10:32.554Z,5
2018-01-31T21:20:32.565Z,6
2018-01-31T21:41:18.107Z,6
2018-01-31T21:41:58.654Z,7
2018-01-31T21:51:59.114Z,7
2018-01-31T22:01:58.771Z,4
2018-01-31T22:11:58.755Z,2
2018-01-31T22:21:58.797Z,2
2018-01-31T22:31:58.779Z,2
2018-01-31T22:41:58.804Z,1
2018-01-31T22:51:58.689Z,1
2018-01-31T23:01:58.788Z,2
2018-01-31T23:11:58.920Z,2
2018-01-31T23:21:58.795Z,2
2018-01-31T23:31:58.829Z,3
2018-01-31T23:41:58.731Z,3
2018-01-31T23:51:58.766Z,4
